Albion, NE

11:53 AM CDT on June 25, 2018 (GMT -0500)
Albion Municipal

Weather History for KBVN - November, 2017

Change the Weather History Date:

Monday, November 20, 2017

  Actual Average (KOFK) Record (KOFK)
Temperature  
Mean Temperature 48 °F -  
Max Temperature 66 °F 43 °F 75 °F (1933)
Min Temperature 30 °F 23 °F -1 °F (1950)
Degree Days  
Heating Degree Days 17    
Moisture  
Dew Point 24 °F    
Average Humidity 52    
Maximum Humidity 76    
Minimum Humidity 16    
Precipitation  
Precipitation 0.00 in - - ()
Sea Level Pressure  
Sea Level Pressure 29.67 in    
Wind  
Wind Speed 4 mph (West)    
Max Wind Speed 13 mph    
Max Gust Speed 21 mph    
Visibility 10 miles    
Events      
Averages and records for this station are not official NWS values.
T = Trace of Precipitation, MM = Missing Value Source: NWS Daily Summary

Daily Weather History Graph

Daily Weather History Graph

Search for Another Location

Airport or City:

Astronomy

Nov. 20, 2017 Rise Set
Actual Time 7:27 AM CST 5:07 PM CST
Civil Twilight 6:57 AM CST 5:37 PM CST
Nautical Twilight 6:23 AM CST 6:11 PM CST
Astronomical Twilight 5:50 AM CST 6:44 PM CST
Moon 9:11 AM CST (11/20) 7:04 PM CST (11/20)
Length of Visible Light 10h 40m
Length of Day
9h 39m
Waxing Crescent, 5% of the Moon is Illuminated
Nov 20
Waxing Crescent
Nov 26
First Quarter
Dec 3
Full
Dec 10
Last Quarter
Dec 18
New

Hourly Weather History & Observations

Time (CST) Temp. Windchill Dew Point Humidity Pressure Visibility Wind Dir Wind Speed Gust Speed Precip Events Conditions
12:15 AM 38.1 °F - 25.0 °F 59% 29.82 in 10.0 mi Calm Calm - N/A   Clear
12:35 AM 37.2 °F - 25.3 °F 62% 29.80 in 10.0 mi Calm Calm - N/A   Clear
12:55 AM 37.2 °F 32.6 °F 25.2 °F 62% 29.80 in 10.0 mi South 5.8 mph - N/A   Clear
1:15 AM 36.0 °F - 25.0 °F 64% 29.79 in 10.0 mi Calm Calm - N/A   Clear
1:35 AM 34.7 °F 30.6 °F 24.3 °F 66% 29.78 in 10.0 mi SSE 4.6 mph - N/A   Clear
1:55 AM 31.8 °F 26.2 °F 24.6 °F 75% 29.77 in 10.0 mi SE 5.8 mph - N/A   Clear
2:15 AM 33.6 °F 28.4 °F 25.0 °F 71% 29.77 in 10.0 mi SSE 5.8 mph - N/A   Clear
2:35 AM 34.0 °F - 25.3 °F 71% 29.76 in 10.0 mi Calm Calm - N/A   Clear
2:55 AM 34.2 °F 31.2 °F 25.0 °F 69% 29.76 in 10.0 mi SSE 3.5 mph - N/A   Clear
3:15 AM 31.5 °F 28.1 °F 24.8 °F 76% 29.76 in 10.0 mi SSE 3.5 mph - N/A   Clear
3:35 AM 32.7 °F 25.7 °F 25.0 °F 73% 29.75 in 10.0 mi SE 8.1 mph - N/A   Clear
3:55 AM 31.8 °F 26.2 °F 24.8 °F 75% 29.74 in 10.0 mi SE 5.8 mph - N/A   Clear
4:15 AM 31.6 °F 27.0 °F 24.8 °F 76% 29.73 in 10.0 mi SE 4.6 mph - N/A   Clear
4:35 AM 33.1 °F 28.7 °F 24.8 °F 72% 29.71 in 10.0 mi SE 4.6 mph - N/A   Clear
4:55 AM 32.0 °F 27.5 °F 24.6 °F 74% 29.71 in 10.0 mi SE 4.6 mph - N/A   Clear
5:15 AM 31.6 °F 28.3 °F 24.4 °F 75% 29.71 in 10.0 mi SSE 3.5 mph - N/A   Clear
5:35 AM 30.9 °F 27.5 °F 24.1 °F 76% 29.71 in 10.0 mi West 3.5 mph - N/A   Clear
5:55 AM 33.1 °F 27.7 °F 24.6 °F 71% 29.71 in 10.0 mi WSW 5.8 mph - N/A   Clear
6:15 AM 33.1 °F - 24.3 °F 70% 29.70 in 10.0 mi Calm Calm - N/A   Clear
6:35 AM 32.9 °F 29.8 °F 23.9 °F 69% 29.69 in 10.0 mi WSW 3.5 mph - N/A   Clear
6:55 AM 34.7 °F 30.6 °F 23.9 °F 65% 29.68 in 10.0 mi WSW 4.6 mph - N/A   Clear
7:15 AM 35.8 °F 30.1 °F 23.5 °F 61% 29.68 in 10.0 mi WSW 6.9 mph - N/A   Clear
7:35 AM 35.2 °F 32.4 °F 23.0 °F 61% 29.68 in 10.0 mi WSW 3.5 mph - N/A   Clear
7:55 AM 34.2 °F - 23.0 °F 64% 29.68 in 10.0 mi Calm Calm - N/A   Clear
8:15 AM 34.9 °F 29.9 °F 23.2 °F 62% 29.68 in 10.0 mi West 5.8 mph - N/A   Clear
8:35 AM 37.4 °F - 23.5 °F 57% 29.67 in 10.0 mi Calm Calm - N/A   Clear
8:55 AM 39.6 °F - 24.3 °F 54% 29.67 in 10.0 mi Calm Calm - N/A   Clear
9:15 AM 42.1 °F 40.2 °F 25.7 °F 52% 29.67 in 10.0 mi South 3.5 mph - N/A   Clear
9:35 AM 42.6 °F 39.9 °F 25.7 °F 51% 29.64 in 10.0 mi SSW 4.6 mph - N/A   Clear
9:55 AM 42.8 °F 40.1 °F 25.9 °F 51% 29.64 in 10.0 mi WSW 4.6 mph - N/A   Clear
10:15 AM 45.1 °F 43.7 °F 25.7 °F 47% 29.64 in 10.0 mi SW 3.5 mph - N/A   Clear
10:35 AM 48.2 °F - 25.9 °F 42% 29.64 in 10.0 mi SSW 4.6 mph - N/A   Clear
10:55 AM 50.2 °F - 25.2 °F 38% 29.63 in 10.0 mi WSW 9.2 mph - N/A   Clear
11:15 AM 52.7 °F - 24.1 °F 33% 29.63 in 10.0 mi WSW 9.2 mph - N/A   Clear
11:35 AM 53.6 °F - 25.0 °F 33% 29.63 in 10.0 mi WSW 10.4 mph - N/A   Clear
11:55 AM 56.1 °F - 23.7 °F 29% 29.61 in 10.0 mi WSW 10.4 mph - N/A   Clear
12:15 PM 56.3 °F - 23.0 °F 28% 29.60 in 10.0 mi WSW 10.4 mph 17.3 mph N/A   Clear
12:35 PM 58.1 °F - 22.8 °F 26% 29.59 in 10.0 mi WSW 6.9 mph 18.4 mph N/A   Clear
12:55 PM 60.1 °F - 23.9 °F 25% 29.57 in 10.0 mi SW 9.2 mph - N/A   Clear
1:15 PM 59.4 °F - 23.4 °F 25% 29.56 in 10.0 mi WSW 9.2 mph - N/A   Clear
1:35 PM 60.6 °F - 23.4 °F 24% 29.57 in 10.0 mi West 9.2 mph - N/A   Clear
1:55 PM 63.5 °F - 21.2 °F 20% 29.56 in 10.0 mi West 10.4 mph - N/A   Clear
2:15 PM 64.9 °F - 20.3 °F 18% 29.56 in 10.0 mi West 11.5 mph 16.1 mph N/A   Clear
2:35 PM 65.7 °F - 20.7 °F 18% 29.57 in 10.0 mi West 12.7 mph 19.6 mph N/A   Clear
2:55 PM 66.0 °F - 20.3 °F 17% 29.54 in 10.0 mi West 10.4 mph - N/A   Clear
3:15 PM 66.2 °F - 18.9 °F 16% 29.55 in 10.0 mi West 12.7 mph 20.7 mph N/A   Clear
3:35 PM 66.2 °F - 19.8 °F 17% 29.55 in 10.0 mi West 11.5 mph - N/A   Clear
3:55 PM 66.0 °F - 21.0 °F 18% 29.56 in 10.0 mi West 6.9 mph - N/A   Clear
4:15 PM 64.9 °F - 18.9 °F 17% 29.58 in 10.0 mi WNW 10.4 mph 17.3 mph N/A   Clear
4:35 PM 59.7 °F - 21.6 °F 23% 29.59 in 10.0 mi NW 5.8 mph - N/A   Clear
4:55 PM 56.1 °F - 20.7 °F 25% 29.59 in 10.0 mi NW 6.9 mph - N/A   Clear
5:15 PM 53.6 °F - 21.7 °F 29% 29.61 in 10.0 mi NW 6.9 mph - N/A   Clear
5:35 PM 50.0 °F - 22.8 °F 34% 29.63 in 10.0 mi NW 6.9 mph - N/A   Clear
5:55 PM 48.9 °F - 21.7 °F 34% 29.63 in 10.0 mi NW 3.5 mph - N/A   Clear
6:15 PM 45.1 °F 43.7 °F 21.6 °F 39% 29.64 in 10.0 mi WNW 3.5 mph - N/A   Clear
6:35 PM 44.1 °F 42.5 °F 22.1 °F 42% 29.65 in 10.0 mi WNW 3.5 mph - N/A   Clear
6:55 PM 41.9 °F - 21.9 °F 45% 29.65 in 10.0 mi Calm Calm - N/A   Clear
7:15 PM 38.8 °F - 23.2 °F 53% 29.65 in 10.0 mi Calm Calm - N/A   Clear
7:35 PM 35.6 °F - 23.9 °F 62% 29.66 in 10.0 mi Calm Calm - N/A   Clear
7:55 PM 37.9 °F 35.5 °F 23.7 °F 57% 29.67 in 10.0 mi NW 3.5 mph - N/A   Clear
8:15 PM 37.9 °F 34.4 °F 23.5 °F 56% 29.68 in 10.0 mi NNW 4.6 mph - N/A   Clear
8:35 PM 36.1 °F 32.3 °F 23.5 °F 60% 29.69 in 10.0 mi WNW 4.6 mph - N/A   Clear
8:55 PM 34.3 °F 28.4 °F 23.5 °F 65% 29.70 in 10.0 mi NNW 6.9 mph - N/A   Clear
9:15 PM 33.6 °F 28.4 °F 23.5 °F 67% 29.70 in 10.0 mi NW 5.8 mph - N/A   Clear
9:35 PM 35.4 °F 30.5 °F 23.9 °F 63% 29.71 in 10.0 mi NNW 5.8 mph - N/A   Clear
9:55 PM 34.5 °F 28.6 °F 23.7 °F 65% 29.71 in 10.0 mi NNW 6.9 mph - N/A   Clear
10:15 PM 34.2 °F 29.0 °F 23.9 °F 66% 29.71 in 10.0 mi NNW 5.8 mph - N/A   Clear
10:35 PM 35.4 °F 31.5 °F 23.9 °F 63% 29.72 in 10.0 mi NW 4.6 mph - N/A   Clear
10:55 PM 31.1 °F 25.4 °F 23.7 °F 74% 29.73 in 10.0 mi WNW 5.8 mph - N/A   Clear
11:15 PM 32.9 °F 26.7 °F 24.4 °F 71% 29.73 in 10.0 mi NW 6.9 mph - N/A   Clear
11:35 PM 33.6 °F 27.5 °F 23.9 °F 68% 29.73 in 10.0 mi NNW 6.9 mph - N/A   Clear
11:55 PM 31.3 °F 24.7 °F 23.4 °F 72% 29.74 in 10.0 mi NW 6.9 mph - N/A   Clear